Time;durP1;ratioP1;P1;durP2;ratioP2;P2;SDS_P1;SDS_P2;PMS_P1;PMS_P2;Temp;Humidity;BMP_temperature;BMP_pressure;BME280_temperature;BME280_humidity;BME280_pressure;Samples;Min_cycle;Max_cycle;Signal;HPM_P1;HPM_P2
2022/03/28 00:00:10;;;;;;;17.40;8.47;;;;;;;10.14;45.58;97558.91;5053306;28;20182;-69
2022/03/28 00:02:40;;;;;;;13.77;7.30;;;;;;;9.99;45.84;97559.16;5055322;28;20182;-69
2022/03/28 00:05:07;;;;;;;14.20;7.80;;;;;;;10.07;46.02;97554.72;5057203;28;20178;-70
2022/03/28 00:07:32;;;;;;;14.27;7.57;;;;;;;9.97;46.28;97552.50;5056649;28;20186;-68
2022/03/28 00:09:58;;;;;;;13.53;7.70;;;;;;;9.90;46.73;97559.56;5055419;28;20216;-70
2022/03/28 00:12:24;;;;;;;22.80;8.30;;;;;;;9.95;46.91;97555.34;5057075;28;20197;-69
2022/03/28 00:14:49;;;;;;;19.63;8.50;;;;;;;9.96;47.42;97551.72;5057613;28;20614;-70
2022/03/28 00:17:15;;;;;;;13.77;7.90;;;;;;;9.79;47.65;97558.38;5057051;28;20181;-69
2022/03/28 00:19:40;;;;;;;12.67;7.90;;;;;;;9.66;47.79;97552.31;5056781;28;20201;-70
2022/03/28 00:22:05;;;;;;;11.50;8.20;;;;;;;9.50;48.34;97546.47;5055291;28;20709;-69
2022/03/28 00:24:31;;;;;;;15.63;8.57;;;;;;;9.62;48.10;97545.88;5056565;28;20184;-68
2022/03/28 00:26:56;;;;;;;12.93;7.40;;;;;;;9.47;48.12;97541.63;5071655;28;20603;-69
2022/03/28 00:29:22;;;;;;;15.03;8.47;;;;;;;9.47;47.56;97539.03;5076712;28;20196;-69
2022/03/28 00:31:47;;;;;;;16.13;8.63;;;;;;;9.44;47.34;97536.00;5076267;28;20181;-68
2022/03/28 00:34:15;;;;;;;14.83;8.27;;;;;;;9.39;47.01;97523.53;5058700;28;20211;-68
2022/03/28 00:36:41;;;;;;;16.43;7.57;;;;;;;9.37;47.34;97535.19;5076705;28;20173;-70
2022/03/28 00:39:07;;;;;;;15.30;8.37;;;;;;;9.39;46.58;97528.75;5058199;28;20201;-70
2022/03/28 00:41:32;;;;;;;17.77;8.13;;;;;;;9.30;47.41;97519.50;5076315;28;20183;-70
2022/03/28 00:43:59;;;;;;;13.40;7.60;;;;;;;9.27;47.14;97521.72;5076000;28;20196;-68
2022/03/28 00:46:25;;;;;;;11.83;7.67;;;;;;;9.24;47.26;97514.28;5076446;28;20181;-69
2022/03/28 00:48:51;;;;;;;11.27;7.33;;;;;;;9.20;47.33;97516.47;5076197;28;20184;-69
2022/03/28 00:51:17;;;;;;;13.50;7.77;;;;;;;9.27;47.07;97514.66;5076105;28;20181;-70
2022/03/28 00:53:44;;;;;;;17.00;7.40;;;;;;;9.15;47.24;97509.22;5076164;28;20173;-69
2022/03/28 00:56:12;;;;;;;14.93;7.40;;;;;;;9.14;47.20;97519.88;5074800;28;20287;-67
2022/03/28 00:58:38;;;;;;;12.97;7.60;;;;;;;9.15;46.72;97511.84;5058062;28;20266;-69
2022/03/28 01:01:04;;;;;;;11.70;7.67;;;;;;;9.07;47.34;97513.84;5076355;28;20573;-68
2022/03/28 01:03:29;;;;;;;14.97;7.80;;;;;;;9.05;47.24;97519.28;5076225;28;20660;-69
2022/03/28 01:05:55;;;;;;;13.87;6.73;;;;;;;9.04;47.38;97509.81;5076115;28;20272;-69
2022/03/28 01:08:20;;;;;;;16.77;8.07;;;;;;;9.01;47.79;97515.44;5075830;28;20181;-69
2022/03/28 01:10:48;;;;;;;10.40;7.50;;;;;;;9.00;48.15;97508.59;5057540;28;20660;-70
2022/03/28 01:13:13;;;;;;;15.30;7.83;;;;;;;8.91;48.72;97501.97;5074983;28;20169;-70
2022/03/28 01:15:39;;;;;;;13.20;7.90;;;;;;;8.83;48.64;97499.50;5075475;28;20185;-70
2022/03/28 01:18:08;;;;;;;13.20;7.50;;;;;;;8.90;48.64;97499.53;5057623;28;20202;-70
2022/03/28 01:20:39;;;;;;;14.97;8.20;;;;;;;8.95;48.81;97494.50;5075611;28;20173;-71
2022/03/28 01:23:06;;;;;;;16.40;8.43;;;;;;;8.85;49.42;97487.06;5075496;28;20242;-69
2022/03/28 01:25:32;;;;;;;12.17;7.50;;;;;;;8.87;49.43;97492.06;5075130;28;20217;-70
2022/03/28 01:27:59;;;;;;;14.83;8.47;;;;;;;8.76;49.55;97481.19;5075692;28;20647;-70
2022/03/28 01:30:29;;;;;;;17.30;8.20;;;;;;;8.83;49.58;97483.81;5075449;28;20185;-70
2022/03/28 01:32:55;;;;;;;13.83;7.80;;;;;;;8.73;49.54;97486.03;5075074;28;20201;-70
2022/03/28 01:35:41;;;;;;;13.20;7.27;;;;;;;8.72;49.80;97481.78;5075628;28;20173;-71
2022/03/28 01:38:12;;;;;;;15.43;7.70;;;;;;;8.72;49.64;97480.00;5075168;28;20193;-70
2022/03/28 01:40:40;;;;;;;11.77;7.53;;;;;;;8.69;49.27;97477.75;5075824;28;20256;-69
2022/03/28 01:43:06;;;;;;;12.27;7.50;;;;;;;8.72;48.84;97477.38;5075384;28;20189;-69
2022/03/28 01:45:31;;;;;;;14.37;8.33;;;;;;;8.71;48.25;97472.34;5075635;28;20182;-70
2022/03/28 01:47:57;;;;;;;14.80;7.50;;;;;;;8.80;48.12;97465.13;5075589;28;20636;-70
2022/03/28 01:50:22;;;;;;;17.30;8.20;;;;;;;8.85;47.83;97466.16;5057204;28;20181;-69
2022/03/28 01:52:48;;;;;;;12.90;7.43;;;;;;;8.88;47.95;97462.31;5074789;28;20605;-70
2022/03/28 01:55:14;;;;;;;17.40;8.10;;;;;;;8.87;47.84;97461.50;5065868;28;20186;-70
2022/03/28 01:57:41;;;;;;;23.77;8.53;;;;;;;8.88;48.50;97460.50;5054625;28;20182;-69
2022/03/28 02:00:10;;;;;;;14.40;8.50;;;;;;;8.84;48.96;97455.88;5055301;28;20279;-70
2022/03/28 02:02:35;;;;;;;13.53;8.30;;;;;;;8.84;49.66;97459.31;5036944;28;20567;-71
2022/03/28 02:05:01;;;;;;;13.77;8.20;;;;;;;8.77;50.47;97459.28;5054653;28;20173;-71
2022/03/28 02:07:26;;;;;;;12.87;8.37;;;;;;;8.75;50.95;97453.44;5054974;28;20178;-69
2022/03/28 02:09:51;;;;;;;16.53;9.10;;;;;;;8.59;51.18;97459.03;5055241;28;20178;-69
2022/03/28 02:12:17;;;;;;;14.33;8.53;;;;;;;8.48;51.47;97449.16;5036853;28;20537;-70
2022/03/28 02:14:43;;;;;;;16.53;8.37;;;;;;;8.47;51.25;97449.38;5037023;28;20181;-70
2022/03/28 02:17:08;;;;;;;13.90;8.70;;;;;;;8.51;51.28;97448.78;5054598;28;20205;-71
2022/03/28 02:19:35;;;;;;;13.23;7.77;;;;;;;8.39;50.91;97447.75;5054601;28;20206;-70
2022/03/28 02:22:00;;;;;;;14.93;8.93;;;;;;;8.53;51.00;97449.38;5054556;28;20177;-69
2022/03/28 02:24:26;;;;;;;18.17;8.40;;;;;;;8.61;50.65;97445.78;5054510;28;20639;-69
2022/03/28 02:26:51;;;;;;;16.57;8.17;;;;;;;8.67;49.87;97447.59;5054280;28;20562;-70
2022/03/28 02:29:17;;;;;;;13.10;7.90;;;;;;;8.75;49.77;97440.38;5054491;28;20261;-69
2022/03/28 02:31:43;;;;;;;14.13;7.97;;;;;;;8.78;49.33;97433.97;5053615;28;20178;-70
2022/03/28 02:34:08;;;;;;;13.53;7.83;;;;;;;8.83;48.71;97436.78;5054602;28;20182;-70
2022/03/28 02:36:33;;;;;;;18.77;7.77;;;;;;;8.90;48.72;97429.75;5054489;28;20181;-70
2022/03/28 02:38:59;;;;;;;11.97;7.70;;;;;;;8.86;48.85;97428.53;5036419;28;20198;-70
2022/03/28 02:41:24;;;;;;;12.73;8.23;;;;;;;8.85;48.88;97433.97;5054229;28;20193;-71
2022/03/28 02:43:50;;;;;;;21.73;9.03;;;;;;;8.80;49.05;97431.16;5053836;28;20224;-70
2022/03/28 02:46:15;;;;;;;15.73;8.03;;;;;;;8.80;48.90;97424.13;5053899;28;20189;-70
2022/03/28 02:48:40;;;;;;;12.43;7.33;;;;;;;8.80;48.97;97423.31;5053581;28;20209;-70
2022/03/28 02:51:06;;;;;;;12.83;8.20;;;;;;;8.66;49.08;97430.31;5036049;28;20259;-70
2022/03/28 02:53:31;;;;;;;11.70;7.23;;;;;;;8.66;49.21;97425.09;5052835;28;20646;-70
2022/03/28 02:55:59;;;;;;;15.77;8.30;;;;;;;8.78;48.71;97420.88;5071461;28;20239;-70
2022/03/28 02:58:24;;;;;;;14.03;7.70;;;;;;;8.69;48.36;97415.03;5074216;28;20218;-69
2022/03/28 03:00:50;;;;;;;11.13;7.10;;;;;;;8.78;47.90;97415.66;5073652;28;20252;-72
2022/03/28 03:03:15;;;;;;;13.67;7.17;;;;;;;8.87;47.26;97421.50;5056143;28;20238;-70
2022/03/28 03:05:42;;;;;;;14.73;7.50;;;;;;;8.76;47.22;97420.28;5073863;28;20208;-70
2022/03/28 03:08:08;;;;;;;13.43;7.17;;;;;;;8.68;47.42;97418.69;5055980;28;20289;-69
2022/03/28 03:10:33;;;;;;;12.77;7.63;;;;;;;8.73;47.63;97416.28;5056199;28;20685;-69
2022/03/28 03:12:58;;;;;;;10.80;7.30;;;;;;;8.68;47.68;97408.22;5073621;28;20184;-70
2022/03/28 03:15:24;;;;;;;15.00;7.07;;;;;;;8.74;48.44;97410.03;5055566;28;20215;-70
2022/03/28 03:17:49;;;;;;;15.50;7.57;;;;;;;8.63;49.49;97407.22;5074060;28;20177;-70
2022/03/28 03:20:15;;;;;;;14.27;7.87;;;;;;;8.36;50.81;97403.72;5073983;28;20564;-70
2022/03/28 03:22:42;;;;;;;12.40;7.63;;;;;;;8.29;50.94;97406.28;5074186;28;20184;-69
2022/03/28 03:25:07;;;;;;;11.63;7.67;;;;;;;8.23;51.11;97401.06;5074053;28;20543;-71
2022/03/28 03:27:38;;;;;;;14.00;7.23;;;;;;;8.24;50.75;97403.47;5073850;28;20185;-70
2022/03/28 03:30:08;;;;;;;15.67;7.93;;;;;;;8.21;50.24;97403.03;5073869;28;20184;-69
2022/03/28 03:32:35;;;;;;;12.53;7.40;;;;;;;8.14;49.88;97400.41;5055359;28;20185;-71
2022/03/28 03:35:02;;;;;;;13.43;7.10;;;;;;;8.25;49.01;97401.63;5074097;28;20574;-71
2022/03/28 03:37:28;;;;;;;11.77;7.93;;;;;;;8.37;48.79;97397.50;5076033;28;20181;-71
2022/03/28 03:39:53;;;;;;;18.50;7.87;;;;;;;8.26;49.35;97396.22;5077817;28;20209;-70
2022/03/28 03:42:19;;;;;;;17.90;7.77;;;;;;;8.31;49.48;97396.47;5060238;28;20606;-69
2022/03/28 03:44:44;;;;;;;13.93;8.00;;;;;;;8.28;50.00;97399.47;5077976;28;20193;-69
2022/03/28 03:47:10;;;;;;;11.57;7.30;;;;;;;8.07;50.84;97402.22;5077510;28;20572;-70
2022/03/28 03:49:35;;;;;;;14.13;7.53;;;;;;;7.94;51.73;97400.34;5077471;28;20181;-70
2022/03/28 03:52:00;;;;;;;12.57;7.20;;;;;;;7.89;52.62;97404.53;5077337;28;20203;-71
2022/03/28 03:54:27;;;;;;;17.53;8.20;;;;;;;7.59;53.71;97403.16;5075700;28;20206;-69
2022/03/28 03:56:53;;;;;;;19.30;8.97;;;;;;;7.44;54.17;97398.06;5078282;28;20193;-71
2022/03/28 03:59:18;;;;;;;17.40;8.70;;;;;;;7.29;54.72;97400.78;5059903;28;20213;-70
2022/03/28 04:01:44;;;;;;;17.40;9.37;;;;;;;7.13;55.76;97402.88;5077357;28;20181;-69
2022/03/28 04:04:12;;;;;;;14.07;8.77;;;;;;;7.08;56.10;97401.63;5078035;28;20173;-70
2022/03/28 04:06:38;;;;;;;16.60;8.63;;;;;;;7.19;55.67;97397.69;5077638;28;20174;-71
2022/03/28 04:09:03;;;;;;;16.57;8.40;;;;;;;7.01;55.84;97395.59;5077491;28;20192;-69
2022/03/28 04:11:29;;;;;;;15.33;8.20;;;;;;;6.83;56.59;97397.81;5077079;28;20180;-69
2022/03/28 04:13:54;;;;;;;13.23;8.07;;;;;;;6.96;55.98;97391.94;5059399;28;20271;-70
2022/03/28 04:16:19;;;;;;;12.77;8.03;;;;;;;6.85;55.86;97397.66;5059249;28;20173;-69
2022/03/28 04:18:45;;;;;;;14.83;8.40;;;;;;;6.60;56.66;97398.03;5077289;28;20249;-70
2022/03/28 04:21:10;;;;;;;12.67;8.53;;;;;;;6.51;56.55;97401.75;5077159;28;20630;-69
2022/03/28 04:23:36;;;;;;;12.40;7.30;;;;;;;6.45;56.72;97396.47;5077063;28;20181;-69
2022/03/28 04:26:01;;;;;;;11.03;7.23;;;;;;;6.23;57.14;97398.25;5077151;28;20291;-70
2022/03/28 04:28:26;;;;;;;14.67;6.87;;;;;;;6.17;57.56;97391.97;5077183;28;20184;-70
2022/03/28 04:30:52;;;;;;;13.70;7.37;;;;;;;6.18;57.78;97391.00;5076175;28;20185;-70
2022/03/28 04:33:19;;;;;;;15.27;7.43;;;;;;;6.24;57.54;97389.47;5076575;28;20177;-69
2022/03/28 04:35:44;;;;;;;12.67;7.90;;;;;;;6.25;56.67;97393.66;5077713;28;20282;-70
2022/03/28 04:38:10;;;;;;;15.27;7.67;;;;;;;6.29;56.83;97387.09;5059933;28;20559;-70
2022/03/28 04:40:36;;;;;;;18.03;8.27;;;;;;;6.34;56.44;97391.75;5077386;28;20181;-70
2022/03/28 04:43:02;;;;;;;14.23;7.60;;;;;;;6.35;56.15;97388.97;5057565;28;20645;-69
2022/03/28 04:45:30;;;;;;;9.80;7.03;;;;;;;6.41;55.90;97390.81;5075525;28;20626;-69
2022/03/28 04:47:55;;;;;;;12.43;7.57;;;;;;;6.35;56.38;97395.97;5075639;28;20268;-69
2022/03/28 04:50:21;;;;;;;11.90;7.27;;;;;;;6.36;56.85;97392.34;5075239;28;20276;-69
2022/03/28 04:52:46;;;;;;;11.37;6.87;;;;;;;6.31;56.66;97394.72;5074527;28;20181;-71
2022/03/28 04:55:12;;;;;;;13.20;8.43;;;;;;;6.25;56.57;97394.47;5074639;28;20182;-69
2022/03/28 04:57:38;;;;;;;15.13;7.03;;;;;;;6.20;57.20;97393.41;5075755;28;20243;-69
2022/03/28 05:00:06;;;;;;;16.53;7.43;;;;;;;6.41;57.06;97396.00;5075391;28;20280;-71
2022/03/28 05:02:32;;;;;;;13.90;7.03;;;;;;;6.25;57.03;97386.66;5055341;28;20190;-70
2022/03/28 05:04:57;;;;;;;10.53;7.23;;;;;;;6.22;57.61;97399.25;5055270;28;20196;-70
2022/03/28 05:07:28;;;;;;;18.93;8.27;;;;;;;6.34;57.13;97400.38;5053793;28;20225;-70
2022/03/28 05:09:53;;;;;;;13.90;7.50;;;;;;;6.25;57.26;97389.25;5055349;28;20635;-69
2022/03/28 05:12:23;;;;;;;16.50;7.87;;;;;;;5.99;58.28;97388.97;5055273;28;20186;-70
2022/03/28 05:14:49;;;;;;;14.50;7.50;;;;;;;6.03;58.69;97385.00;5054996;28;20269;-69
2022/03/28 05:17:19;;;;;;;10.93;7.23;;;;;;;6.01;58.73;97394.81;5055102;28;20201;-69
2022/03/28 05:19:44;;;;;;;14.27;7.43;;;;;;;5.84;59.49;97391.56;5037688;28;20533;-70
2022/03/28 05:22:09;;;;;;;15.83;7.90;;;;;;;6.00;59.08;97387.97;5055277;28;20186;-70
2022/03/28 05:24:35;;;;;;;12.73;7.70;;;;;;;6.12;58.73;97388.31;5060001;28;20185;-69
2022/03/28 05:27:00;;;;;;;11.87;7.17;;;;;;;6.14;58.86;97386.31;5074414;28;20229;-69
2022/03/28 05:29:26;;;;;;;14.00;7.50;;;;;;;6.07;59.07;97382.88;5074553;28;20200;-69
2022/03/28 05:31:51;;;;;;;18.90;8.00;;;;;;;6.03;59.60;97381.59;5074089;28;20182;-70
2022/03/28 05:34:17;;;;;;;13.77;7.50;;;;;;;6.09;59.53;97386.88;5056846;28;20697;-69
2022/03/28 05:36:43;;;;;;;13.90;7.67;;;;;;;6.31;58.43;97390.31;5074581;28;20185;-69
2022/03/28 05:39:09;;;;;;;11.83;7.40;;;;;;;6.32;58.67;97384.13;5074577;28;20543;-69
2022/03/28 05:41:35;;;;;;;12.57;7.97;;;;;;;6.42;58.32;97383.81;5074511;28;20177;-69
2022/03/28 05:44:00;;;;;;;12.60;8.80;;;;;;;6.31;58.93;97381.69;5074656;28;20185;-69
2022/03/28 05:46:26;;;;;;;12.50;7.97;;;;;;;6.37;59.10;97386.16;5074085;28;20177;-70
2022/03/28 05:48:52;;;;;;;9.90;7.50;;;;;;;6.31;58.83;97390.31;5074398;28;20177;-70
2022/03/28 05:51:17;;;;;;;13.67;7.77;;;;;;;6.34;59.03;97389.16;5073874;28;20189;-69
2022/03/28 05:53:43;;;;;;;13.77;8.13;;;;;;;6.33;58.40;97390.13;5072622;28;20197;-71
2022/03/28 05:56:08;;;;;;;13.70;7.23;;;;;;;6.46;58.11;97385.06;5056590;28;20193;-70
2022/03/28 05:58:33;;;;;;;14.73;7.70;;;;;;;6.25;58.73;97389.25;5074422;28;20255;-70
2022/03/28 06:01:00;;;;;;;12.63;8.03;;;;;;;6.58;57.83;97388.78;5072123;28;20459;-70
2022/03/28 06:03:26;;;;;;;10.68;7.90;;;;;;;6.81;57.14;97394.59;5072661;28;20392;-70
2022/03/28 06:05:51;;;;;;;12.70;8.45;;;;;;;7.11;56.69;97387.44;5072593;28;20376;-70
2022/03/28 06:08:17;;;;;;;12.25;8.75;;;;;;;7.26;56.07;97390.72;5073076;28;20433;-70
2022/03/28 06:10:42;;;;;;;10.57;8.30;;;;;;;7.37;55.97;97394.59;5054674;28;20384;-71
2022/03/28 06:13:08;;;;;;;12.30;7.82;;;;;;;7.36;55.45;97398.22;5073019;28;20372;-69
2022/03/28 06:15:36;;;;;;;14.27;8.55;;;;;;;7.72;55.28;97388.41;5072573;28;20466;-72
2022/03/28 06:18:03;;;;;;;13.05;8.23;;;;;;;7.85;54.19;97391.06;5054575;28;20383;-70
2022/03/28 06:20:29;;;;;;;13.25;7.90;;;;;;;7.89;54.25;97400.13;5072769;28;20394;-71
2022/03/28 06:22:54;;;;;;;10.97;8.03;;;;;;;8.00;53.89;97393.53;5072431;28;20376;-72
2022/03/28 06:25:20;;;;;;;13.48;8.15;;;;;;;7.87;54.15;97386.44;5071090;28;20745;-71
2022/03/28 06:27:46;;;;;;;13.05;8.40;;;;;;;7.96;53.96;97388.91;5072130;28;20383;-69
2022/03/28 06:30:11;;;;;;;10.90;8.10;;;;;;;8.05;53.61;97395.56;5072261;28;20386;-71
2022/03/28 06:32:38;;;;;;;12.07;8.10;;;;;;;8.24;53.81;97389.59;5054199;28;20423;-70
2022/03/28 06:35:06;;;;;;;13.13;8.35;;;;;;;8.65;52.67;97400.75;5072437;28;20387;-71
2022/03/28 06:37:32;;;;;;;12.18;8.35;;;;;;;8.47;52.56;97394.53;5054001;28;20387;-70
2022/03/28 06:39:57;;;;;;;12.43;8.70;;;;;;;8.32;53.18;97394.66;5072259;28;20414;-70
2022/03/28 06:42:23;;;;;;;12.63;8.37;;;;;;;8.52;53.24;97398.16;5072066;28;20411;-69
2022/03/28 06:44:48;;;;;;;11.82;8.95;;;;;;;8.43;53.17;97399.31;5071930;28;20380;-70
2022/03/28 06:47:14;;;;;;;12.20;8.73;;;;;;;8.64;52.60;97399.16;5072060;28;20387;-70
2022/03/28 06:49:39;;;;;;;14.23;8.97;;;;;;;8.78;52.21;97399.97;5071459;28;20918;-70
2022/03/28 06:52:05;;;;;;;12.40;8.17;;;;;;;9.02;51.43;97390.75;5069399;28;20426;-73
2022/03/28 06:54:30;;;;;;;13.02;7.75;;;;;;;9.23;53.87;97395.75;5071574;28;20444;-74
2022/03/28 06:56:56;;;;;;;12.52;7.75;;;;;;;9.99;65.31;97393.34;5071883;28;20395;-75
2022/03/28 06:59:23;;;;;;;12.87;8.80;;;;;;;10.28;50.37;97389.44;5071879;28;20438;-70
2022/03/28 07:01:49;;;;;;;15.97;8.57;;;;;;;10.22;49.85;97385.84;5069414;28;20331;-71
2022/03/28 07:04:15;;;;;;;14.17;7.83;;;;;;;10.10;50.33;97389.28;5072282;28;20185;-70
2022/03/28 07:06:40;;;;;;;16.20;8.57;;;;;;;10.05;50.23;97387.28;5071180;28;20184;-70
2022/03/28 07:09:06;;;;;;;13.43;8.33;;;;;;;9.91;51.15;97377.91;5071232;28;20191;-70
2022/03/28 07:11:32;;;;;;;15.77;7.90;;;;;;;10.13;50.91;97376.59;5072176;28;20176;-70
2022/03/28 07:13:58;;;;;;;13.97;8.60;;;;;;;10.05;51.06;97374.19;5055454;28;20227;-70
2022/03/28 07:16:24;;;;;;;13.20;8.33;;;;;;;10.24;50.83;97375.16;5071951;28;20185;-72
2022/03/28 07:18:50;;;;;;;14.17;8.07;;;;;;;10.38;50.38;97382.72;5070028;28;21257;-71
2022/03/28 07:21:16;;;;;;;13.70;7.93;;;;;;;10.47;50.27;97380.66;5070404;28;20189;-70
2022/03/28 07:23:42;;;;;;;14.70;9.23;;;;;;;10.25;50.67;97382.78;5071581;28;20537;-71
2022/03/28 07:26:07;;;;;;;12.77;8.43;;;;;;;10.20;50.47;97387.84;5072432;28;20232;-70
2022/03/28 07:28:35;;;;;;;14.33;8.67;;;;;;;10.15;51.21;97384.22;5072078;28;20290;-72
2022/03/28 07:31:01;;;;;;;12.47;8.27;;;;;;;10.43;50.67;97389.94;5063143;28;20534;-71
2022/03/28 07:33:26;;;;;;;12.50;8.03;;;;;;;10.64;50.76;97387.03;5072182;28;20235;-71
2022/03/28 07:35:52;;;;;;;11.90;8.27;;;;;;;10.66;50.71;97379.72;5071765;28;20196;-71
2022/03/28 07:38:18;;;;;;;18.53;8.73;;;;;;;10.80;49.66;97377.81;5072267;28;20247;-70
2022/03/28 07:40:44;;;;;;;12.97;7.77;;;;;;;11.00;49.33;97381.09;5054275;28;20181;-70
2022/03/28 07:43:09;;;;;;;15.20;8.27;;;;;;;11.18;49.55;97378.53;5072075;28;20185;-70
2022/03/28 07:45:36;;;;;;;14.37;9.07;;;;;;;11.53;49.12;97372.75;5054044;28;20181;-72
2022/03/28 07:48:02;;;;;;;16.37;8.53;;;;;;;11.68;48.39;97378.44;5072372;28;20620;-72
2022/03/28 07:50:29;;;;;;;13.73;9.10;;;;;;;11.86;47.56;97367.97;5073374;28;20201;-71
2022/03/28 07:52:55;;;;;;;14.10;8.77;;;;;;;12.06;46.48;97373.78;5069892;28;20197;-71
2022/03/28 07:55:20;;;;;;;16.47;8.77;;;;;;;12.03;47.38;97365.53;5071858;28;20181;-71
2022/03/28 07:57:46;;;;;;;13.83;8.93;;;;;;;12.20;47.81;97365.72;5071463;28;20181;-71
2022/03/28 08:00:16;;;;;;;15.40;8.60;;;;;;;12.17;47.92;97369.59;5053950;28;20286;-71
2022/03/28 08:02:42;;;;;;;11.53;8.73;;;;;;;12.25;47.97;97360.59;5071648;28;20540;-72
2022/03/28 08:05:09;;;;;;;20.07;9.30;;;;;;;12.32;47.93;97371.81;5071915;28;20242;-71
2022/03/28 08:07:35;;;;;;;17.10;9.17;;;;;;;12.38;47.81;97368.28;5071729;28;20210;-70
2022/03/28 08:10:01;;;;;;;12.30;9.13;;;;;;;12.56;47.10;97364.81;5088024;28;20267;-70
2022/03/28 08:12:28;;;;;;;13.87;8.73;;;;;;;12.62;47.61;97363.91;5072234;28;20247;-72
2022/03/28 08:14:54;;;;;;;12.87;8.70;;;;;;;12.87;47.08;97359.31;5072426;28;20191;-71
2022/03/28 08:17:20;;;;;;;15.07;9.80;;;;;;;12.99;46.46;97356.66;5072384;28;20641;-72
2022/03/28 08:19:46;;;;;;;15.70;9.13;;;;;;;13.06;45.87;97354.72;5071724;28;20705;-71
2022/03/28 08:22:13;;;;;;;17.90;9.30;;;;;;;13.20;44.44;97351.69;5072133;28;20213;-72
2022/03/28 08:24:38;;;;;;;17.03;8.80;;;;;;;13.25;43.45;97354.44;5075304;28;20247;-72
2022/03/28 08:27:06;;;;;;;16.97;9.37;;;;;;;13.24;43.96;97346.75;5075332;28;20225;-70
2022/03/28 08:29:32;;;;;;;22.20;9.40;;;;;;;13.25;44.34;97348.38;5075622;28;20185;-72
2022/03/28 08:32:07;;;;;;;22.83;10.00;;;;;;;13.37;44.45;97346.53;5074078;28;20281;-73
2022/03/28 08:34:32;;;;;;;15.77;8.30;;;;;;;13.41;45.03;97347.66;5075647;28;20199;-72
2022/03/28 08:36:58;;;;;;;13.80;9.30;;;;;;;13.31;45.51;97350.09;5075684;28;20610;-71
2022/03/28 08:39:23;;;;;;;14.90;8.60;;;;;;;13.45;45.34;97348.00;5057440;28;20197;-71
2022/03/28 08:41:49;;;;;;;13.63;9.20;;;;;;;13.87;44.53;97346.00;5067365;28;20193;-71
2022/03/28 08:44:15;;;;;;;17.07;9.30;;;;;;;13.76;44.58;97344.19;5075167;28;20191;-72
2022/03/28 08:46:43;;;;;;;16.97;10.13;;;;;;;13.95;44.38;97340.34;5077295;28;20548;-72
2022/03/28 08:49:09;;;;;;;17.17;9.57;;;;;;;14.14;44.27;97336.50;5095817;28;20180;-71
2022/03/28 08:51:35;;;;;;;16.57;9.60;;;;;;;14.16;43.81;97337.06;5067875;28;20557;-72
2022/03/28 08:54:01;;;;;;;15.60;10.00;;;;;;;14.30;43.75;97334.94;5075114;28;20177;-72
2022/03/28 08:56:27;;;;;;;23.70;9.57;;;;;;;14.39;42.99;97336.97;5075222;28;20243;-72
2022/03/28 08:58:52;;;;;;;17.00;9.70;;;;;;;14.38;42.84;97338.00;5075154;28;20734;-72
2022/03/28 09:01:20;;;;;;;19.13;9.87;;;;;;;14.50;43.19;97335.31;5074252;28;20189;-72
2022/03/28 09:03:47;;;;;;;18.57;9.30;;;;;;;14.66;43.35;97337.19;5074054;28;20200;-72
2022/03/28 09:06:31;;;;;;;15.43;8.80;;;;;;;14.84;43.12;97330.88;5075048;28;20649;-73
2022/03/28 09:09:24;;;;;;;23.03;10.03;;;;;;;14.82;41.82;97333.75;5070449;28;20338;-71
2022/03/28 09:11:52;;;;;;;17.80;9.70;;;;;;;14.94;42.38;97329.19;5056678;28;20215;-71
2022/03/28 09:14:27;;;;;;;16.10;10.03;;;;;;;14.64;43.25;97326.09;5056386;28;20596;-71
2022/03/28 09:17:15;;;;;;;18.60;9.40;;;;;;;14.68;43.43;97324.56;5073693;28;20509;-71
2022/03/28 09:20:03;;;;;;;15.77;9.93;;;;;;;15.06;42.68;97315.91;5074601;28;20253;-71
2022/03/28 09:22:30;;;;;;;19.60;10.63;;;;;;;15.11;42.93;97308.06;5074753;28;20273;-71
2022/03/28 09:25:08;;;;;;;16.93;9.77;;;;;;;15.19;42.17;97307.66;5074651;28;20182;-73
2022/03/28 09:27:37;;;;;;;16.47;9.90;;;;;;;15.21;42.09;97305.56;5074141;28;20202;-72
2022/03/28 09:30:08;;;;;;;16.23;9.53;;;;;;;15.15;42.48;97295.19;5056659;28;20193;-72
2022/03/28 09:32:47;;;;;;;15.70;9.70;;;;;;;15.23;41.97;97298.22;5073555;28;20193;-72
2022/03/28 09:35:23;;;;;;;17.20;10.80;;;;;;;15.18;42.20;97294.69;5073748;28;20181;-73
2022/03/28 09:38:04;;;;;;;14.67;10.40;;;;;;;15.33;42.27;97294.91;5074007;28;20306;-72
2022/03/28 09:40:37;;;;;;;18.23;9.57;;;;;;;15.29;42.21;97294.59;5074425;28;20181;-72
2022/03/28 09:43:07;;;;;;;17.07;10.07;;;;;;;15.37;42.13;97288.91;5073591;28;20227;-72
2022/03/28 09:45:38;;;;;;;19.97;10.80;;;;;;;15.49;41.00;97280.06;5073823;28;20200;-72
2022/03/28 09:48:11;;;;;;;17.97;10.40;;;;;;;15.51;41.03;97276.13;5073700;28;20188;-72
2022/03/28 09:50:48;;;;;;;15.80;10.30;;;;;;;15.68;40.27;97265.50;5072059;28;20197;-70
2022/03/28 09:53:15;;;;;;;18.67;10.23;;;;;;;15.78;40.56;97270.91;5055741;28;20531;-70
2022/03/28 09:55:53;;;;;;;22.20;10.43;;;;;;;16.07;39.24;97269.66;5061424;28;20192;-69
2022/03/28 09:58:46;;;;;;;17.07;10.57;;;;;;;16.22;39.37;97259.22;5094142;28;20208;-70
2022/03/28 10:01:28;;;;;;;18.20;9.93;;;;;;;16.22;38.97;97261.84;5077183;28;20537;-70
2022/03/28 10:03:55;;;;;;;18.07;11.13;;;;;;;16.27;39.28;97260.31;5072648;28;20964;-70
2022/03/28 10:06:22;;;;;;;20.63;10.77;;;;;;;16.41;39.47;97254.34;5073627;28;20245;-70
2022/03/28 10:08:48;;;;;;;18.53;10.43;;;;;;;16.38;39.44;97246.94;5073132;28;20193;-70
2022/03/28 10:11:16;;;;;;;18.13;10.60;;;;;;;16.26;39.45;97248.94;5072941;28;20584;-69
2022/03/28 10:13:42;;;;;;;19.73;10.67;;;;;;;16.49;38.98;97247.81;5073343;28;20269;-69
2022/03/28 10:16:08;;;;;;;18.60;10.50;;;;;;;16.62;39.03;97240.25;5063198;28;20669;-69
2022/03/28 10:18:36;;;;;;;18.63;10.33;;;;;;;16.67;38.74;97236.84;5072358;28;20201;-69
2022/03/28 10:21:15;;;;;;;18.73;9.87;;;;;;;16.71;39.28;97237.16;5055223;28;20237;-70
2022/03/28 10:24:04;;;;;;;18.90;10.27;;;;;;;16.89;39.05;97229.59;5072641;28;20694;-69
2022/03/28 10:26:36;;;;;;;16.20;10.00;;;;;;;16.77;38.59;97229.00;5072906;28;20236;-68
2022/03/28 10:29:07;;;;;;;19.63;11.30;;;;;;;16.72;38.78;97228.94;5072981;28;20638;-69
2022/03/28 10:31:34;;;;;;;22.67;11.20;;;;;;;16.45;38.81;97228.97;5072630;28;20284;-71
2022/03/28 10:34:01;;;;;;;18.57;9.87;;;;;;;16.36;38.76;97221.78;5055142;28;20193;-69
2022/03/28 10:36:32;;;;;;;16.90;10.57;;;;;;;16.42;38.48;97220.75;5073192;28;20220;-69
2022/03/28 10:39:29;;;;;;;17.10;11.03;;;;;;;16.53;38.84;97203.91;5072708;28;20197;-68
2022/03/28 10:42:07;;;;;;;18.00;10.63;;;;;;;16.78;38.32;97206.75;5072253;28;20216;-69
2022/03/28 10:44:57;;;;;;;17.58;10.73;;;;;;;16.98;37.46;97203.44;5067151;28;20173;-68
2022/03/28 10:47:51;;;;;;;19.47;10.83;;;;;;;16.72;37.67;97191.88;5072437;28;20191;-69
2022/03/28 10:50:25;;;;;;;18.77;10.20;;;;;;;16.89;37.86;97195.16;5069935;28;20201;-69
2022/03/28 10:53:11;;;;;;;20.47;11.07;;;;;;;16.91;37.20;97181.69;5070444;28;20188;-68
2022/03/28 10:55:37;;;;;;;22.00;10.57;;;;;;;16.93;37.08;97174.28;5072156;28;20227;-68
2022/03/28 10:58:13;;;;;;;18.93;10.17;;;;;;;17.13;36.85;97171.72;5072450;28;20189;-69
2022/03/28 11:00:38;;;;;;;19.77;10.30;;;;;;;17.15;37.10;97166.97;5054004;28;20568;-69
2022/03/28 11:03:04;;;;;;;18.83;10.40;;;;;;;17.00;36.03;97158.94;5054369;28;20205;-69
2022/03/28 11:05:31;;;;;;;21.30;10.60;;;;;;;17.07;36.22;97159.50;5072710;28;20181;-69
2022/03/28 11:08:03;;;;;;;17.63;10.80;;;;;;;17.01;36.74;97160.53;5072235;28;20193;-68
2022/03/28 11:10:29;;;;;;;19.40;11.27;;;;;;;17.26;36.65;97157.22;5053625;28;20504;-68
2022/03/28 11:13:13;;;;;;;20.43;10.87;;;;;;;17.11;36.34;97146.56;5053423;28;20691;-68
2022/03/28 11:15:39;;;;;;;22.60;11.07;;;;;;;17.43;36.05;97148.00;5071525;28;20170;-69
2022/03/28 11:18:09;;;;;;;23.83;11.73;;;;;;;17.28;34.94;97139.97;5071624;28;20192;-68
2022/03/28 11:20:52;;;;;;;20.07;10.57;;;;;;;17.31;35.04;97142.13;5071237;28;20598;-69
2022/03/28 11:23:21;;;;;;;16.13;10.23;;;;;;;17.30;34.98;97137.06;5071729;28;20183;-68
2022/03/28 11:25:53;;;;;;;17.40;10.30;;;;;;;17.27;34.97;97137.63;5070663;28;20693;-69
2022/03/28 11:28:21;;;;;;;17.38;10.65;;;;;;;17.30;34.66;97132.56;5071253;28;20583;-68
2022/03/28 11:30:50;;;;;;;17.80;10.55;;;;;;;17.52;34.56;97124.41;5052527;28;20192;-70